Abis Bremen — PCJO — position and weather

sailwx.info

Track history (hours):
 
Tides and Currents Weather Stations Pressure Air Temp Water Temp Dewpoint Dewpoint Depression Visibility Wind Speed Wind Dir Waves Ship Positions

Abis Bremen

Last reported at 2018-May-28 00:59 UTC. Time now 2018-May-28 01:09 UTC.
Position N 51°15' E 004°23'.

Length 90 m; draft 5.2 m.

Type: Ship. MMSI: 246778880.

Date/timePositionNaut miles runAvg speedWind from/ knotsBaromVisibWave heightAir tempDewpointWater temp
2018-May-28 00:59N 51°15' E 004°23'0 0.0
2018-May-28 00:29N 51°15' E 004°23'0 0.0
2018-May-27 23:59N 51°15' E 004°23'0 0.0
2018-May-27 23:29N 51°15' E 004°23'0 0.0
2018-May-27 22:59N 51°15' E 004°23'0 0.0
2018-May-27 22:29N 51°15' E 004°23'0 0.0
2018-May-27 21:59N 51°15' E 004°23'0 0.0
2018-May-27 21:29N 51°15' E 004°23'0 0.0
2018-May-27 20:59N 51°15' E 004°23'0 0.0
2018-May-27 20:29N 51°15' E 004°23'0 0.0
2018-May-27 19:59N 51°15' E 004°23'0 0.0
2018-May-27 19:29N 51°15' E 004°23'0 0.0
2018-May-27 18:59N 51°15' E 004°23'0 0.0
2018-May-27 18:29N 51°15' E 004°23'0 0.0
2018-May-27 17:59N 51°15' E 004°23'0 0.0
2018-May-27 17:29N 51°15' E 004°23'0 0.0
2018-May-27 16:56N 51°15' E 004°23'0 0.0
2018-May-27 16:26N 51°15' E 004°23'0 0.0
2018-May-27 15:59N 51°15' E 004°23'0 0.0
2018-May-27 15:29N 51°15' E 004°23'0 0.0
2018-May-27 14:59N 51°15' E 004°23'0 0.0
2018-May-27 14:29N 51°15' E 004°23'0 0.0
2018-May-27 13:59N 51°15' E 004°23'0 0.0
2018-May-27 13:29N 51°15' E 004°23'0 0.0
2018-May-27 12:59N 51°15' E 004°23'0 0.0
2018-May-27 12:29N 51°15' E 004°23'0 0.0
2018-May-27 11:59N 51°15' E 004°23'0 0.0
2018-May-27 11:29N 51°15' E 004°23'0 0.0
2018-May-27 10:59N 51°15' E 004°23'0 0.0
2018-May-27 10:29N 51°15' E 004°23'0 0.0
2018-May-27 09:59N 51°15' E 004°23'0 0.0
2018-May-27 09:29N 51°15' E 004°23'0 0.0
2018-May-27 08:59N 51°15' E 004°23'0 0.0
2018-May-27 08:29N 51°15' E 004°23'0 0.0
2018-May-27 07:59N 51°15' E 004°23'0 0.0
2018-May-27 07:29N 51°15' E 004°23'0 0.0
2018-May-27 06:59N 51°15' E 004°23'0 0.0
2018-May-27 06:29N 51°15' E 004°23'0 0.0
2018-May-27 06:00N 51°15' E 004°23'1 1.9
2018-May-27 05:31N 51°15' E 004°22'2 3.4
2018-May-27 05:00N 51°17' E 004°20'0 0.5
2018-May-27 04:30N 51°17' E 004°20'3 5.9
2018-May-27 04:00N 51°19' E 004°16'4 7.9
2018-May-27 03:30N 51°22' E 004°13'3 5.6
2018-May-27 03:00N 51°22' E 004°09'4 7.7
2018-May-27 02:30N 51°23' E 004°02'4 7.8
2018-May-27 02:00N 51°26' E 003°59'4 8.8
2018-May-27 01:30N 51°22' E 003°56'5 9.4
2018-May-27 01:00N 51°21' E 003°49'5 9.9
2018-May-27 00:30N 51°24' E 003°42'510.0
2018-May-27 00:00N 51°26' E 003°35'5 9.8
2018-May-26 23:29N 51°29' E 003°29'510.7
2018-May-26 23:00N 51°34' E 003°25'611.8
2018-May-26 22:30N 51°39' E 003°20'611.0
2018-May-26 22:00N 51°43' E 003°14'5 9.4
2018-May-26 21:30N 51°47' E 003°10'510.6
2018-May-26 21:00N 51°51' E 003°03'2410.1
2018-May-26 18:37N 52°09' E 002°39'1112.0
2018-May-26 17:41N 52°21' E 002°37'212.0
2018-May-26 17:30N 52°23' E 002°37'911.7
2018-May-26 16:46N 52°31' E 002°37'311.3
2018-May-26 16:30N 52°34' E 002°37'511.0
2018-May-26 16:00N 52°40' E 002°37'510.6
2018-May-26 15:30N 52°45' E 002°37'510.2
2018-May-26 15:00N 52°50' E 002°37'5 9.7
2018-May-26 14:30N 52°55' E 002°37'5 9.3
2018-May-26 14:00N 52°60' E 002°37'5 9.1
2018-May-26 13:29N 53°04' E 002°37'4 9.1
2018-May-26 13:00N 53°09' E 002°38'5 9.1
2018-May-26 12:30N 53°13' E 002°40'4 8.8
2018-May-26 12:00N 53°17' E 002°39'5 9.0
2018-May-26 11:28N 53°22' E 002°37'4 9.0
2018-May-26 10:59N 53°26' E 002°34'5 9.2
2018-May-26 10:29N 53°31' E 002°32'4 9.3
2018-May-26 10:00N 53°35' E 002°29'5 9.4
2018-May-26 09:30N 53°39' E 002°27'6 9.6
2018-May-26 08:50N 53°45' E 002°23'3 9.8
2018-May-26 08:30N 53°48' E 002°21'710.2
2018-May-26 07:52N 53°54' E 002°17'410.5
2018-May-26 07:30N 53°58' E 002°15'510.7
2018-May-26 07:00N 54°02' E 002°10'1610.6
2018-May-26 05:30N 54°15' E 001°53'610.3
2018-May-26 04:58N 54°19' E 001°47'510.1
2018-May-26 04:30N 54°23' E 001°42'5 9.9
2018-May-26 03:57N 54°27' E 001°37'510.1
2018-May-26 03:28N 54°31' E 001°32'510.4
2018-May-26 03:00N 54°35' E 001°28'510.3
2018-May-26 02:30N 54°39' E 001°22'510.2
2018-May-26 02:00N 54°43' E 001°16'510.0
2018-May-26 01:30N 54°47' E 001°10'510.1
2018-May-26 01:00N 54°51' E 001°05'79 9.8
2018-May-25 16:55N 55°55' W 000°17'7 9.5
2018-May-25 16:11N 56°00' W 000°24'2 9.6
2018-May-25 16:00N 56°02' W 000°26'3810.0
2018-May-25 12:16N 56°32' W 001°07'310.5
2018-May-25 12:00N 56°34' W 001°10'2110.8
2018-May-25 10:05N 56°51' W 001°32'311.0
2018-May-25 09:51N 56°53' W 001°35'410.9
2018-May-25 09:30N 56°56' W 001°39'611.0
2018-May-25 09:00N 56°60' W 001°45'511.0
2018-May-25 08:30N 57°04' W 001°51'510.8
2018-May-25 08:00N 57°09' W 001°57'3 5.9
2018-May-25 07:28N 57°11' W 002°01'0 0.0
2018-May-25 06:58N 57°11' W 002°01'0 0.0
2018-May-25 06:28N 57°11' W 002°01'0 0.0
2018-May-25 05:58N 57°11' W 002°01'0 0.0
2018-May-25 05:28N 57°11' W 002°01'0 0.0
2018-May-25 04:58N 57°11' W 002°01'0 0.0
2018-May-25 04:28N 57°11' W 002°01'0 0.0
2018-May-25 03:58N 57°11' W 002°01'0 0.0
2018-May-25 03:28N 57°11' W 002°01'0 0.0
2018-May-25 02:58N 57°11' W 002°01'0 0.0
2018-May-25 02:28N 57°11' W 002°01'0 0.0
2018-May-25 01:58N 57°11' W 002°01'0 0.0
2018-May-25 01:25N 57°11' W 002°01'0 0.0
2018-May-25 00:58N 57°11' W 002°01'0 0.0
2018-May-25 00:28N 57°11' W 002°01'0 0.0
2018-May-24 23:58N 57°11' W 002°01'0 0.0
2018-May-24 23:28N 57°11' W 002°01'0 0.0
2018-May-24 22:58N 57°11' W 002°01'0 0.0
2018-May-24 22:28N 57°11' W 002°01'0 0.0
2018-May-24 21:58N 57°11' W 002°01'0 0.0
2018-May-24 21:28N 57°11' W 002°01'0 0.0
2018-May-24 20:58N 57°11' W 002°01'0 0.0
2018-May-24 20:28N 57°11' W 002°01'0 0.0
2018-May-24 19:58N 57°11' W 002°01'0 0.0
2018-May-24 19:28N 57°11' W 002°01'0 0.0
2018-May-24 18:58N 57°11' W 002°01'0 0.0
2018-May-24 18:28N 57°11' W 002°01'0 0.0
2018-May-24 17:58N 57°11' W 002°01'0 0.0
2018-May-24 17:28N 57°11' W 002°01'0 0.0
2018-May-24 16:58N 57°11' W 002°01'0 0.0
2018-May-24 16:25N 57°11' W 002°01'0 0.0
2018-May-24 15:58N 57°11' W 002°01'0 0.0
2018-May-24 15:28N 57°11' W 002°01'0 0.0
2018-May-24 14:58N 57°11' W 002°01'0 0.0
2018-May-24 14:25N 57°11' W 002°01'0 0.0
2018-May-24 13:58N 57°11' W 002°01'0 0.0
2018-May-24 13:19N 57°11' W 002°01'0 0.0
2018-May-24 08:58N 57°11' W 002°01'0 0.0
2018-May-24 08:28N 57°11' W 002°01'0 0.0
2018-May-24 07:58N 57°11' W 002°01'0 0.0
2018-May-24 07:28N 57°11' W 002°01'0 0.0
2018-May-24 06:58N 57°11' W 002°01'0 0.1
2018-May-24 06:25N 57°11' W 002°01'0 0.1
2018-May-24 05:58N 57°11' W 002°01'0 0.0
2018-May-24 05:28N 57°11' W 002°01'0 0.0
2018-May-24 04:58N 57°11' W 002°01'0 0.0
2018-May-24 04:28N 57°11' W 002°01'0 0.0
2018-May-24 03:58N 57°11' W 002°01'0 0.0
2018-May-24 03:28N 57°11' W 002°01'0 0.0
2018-May-24 02:58N 57°11' W 002°01'0 0.0
2018-May-24 02:28N 57°11' W 002°01'0 0.0
2018-May-24 01:55N 57°11' W 002°01'0 0.0
2018-May-24 01:28N 57°11' W 002°01'0 0.0
2018-May-24 00:58N 57°11' W 002°01'0 0.0
2018-May-24 00:28N 57°11' W 002°01'0 0.0
2018-May-23 23:58N 57°11' W 002°01'0 0.0
2018-May-23 23:28N 57°11' W 002°01'0 0.0
2018-May-23 22:58N 57°11' W 002°01'0 0.0
2018-May-23 22:28N 57°11' W 002°01'0 0.0
2018-May-23 21:58N 57°11' W 002°01'0 0.0
2018-May-23 21:28N 57°11' W 002°01'0 0.0
2018-May-23 20:58N 57°11' W 002°01'0 0.0
2018-May-23 20:28N 57°11' W 002°01'0 0.0
2018-May-23 19:58N 57°11' W 002°01'0 0.0
2018-May-23 19:28N 57°11' W 002°01'0 0.0
2018-May-23 18:58N 57°11' W 002°01'0 0.0
2018-May-23 18:25N 57°11' W 002°01'0 0.0
2018-May-23 17:58N 57°11' W 002°01'0 0.0
2018-May-23 17:28N 57°11' W 002°01'0 0.0
2018-May-23 16:58N 57°11' W 002°01'0 0.0
2018-May-23 16:25N 57°11' W 002°01'0 0.0
2018-May-23 15:58N 57°11' W 002°01'0 0.0
2018-May-23 15:28N 57°11' W 002°01'0 0.0
2018-May-23 14:55N 57°11' W 002°01'0 0.0
2018-May-23 14:28N 57°11' W 002°01'0 0.0
2018-May-23 13:58N 57°11' W 002°01'0 0.0
2018-May-23 13:28N 57°11' W 002°01'0 0.0
2018-May-23 12:58N 57°11' W 002°01'0 0.0
2018-May-23 12:28N 57°11' W 002°01'0 0.0
2018-May-23 11:58N 57°11' W 002°01'0 0.0
2018-May-23 11:28N 57°11' W 002°01'0 0.0
2018-May-23 10:58N 57°11' W 002°01'0 0.0
2018-May-23 10:28N 57°11' W 002°01'0 0.0
2018-May-23 09:58N 57°11' W 002°01'0 0.0
2018-May-23 09:28N 57°11' W 002°01'0 0.0
2018-May-23 08:58N 57°11' W 002°01'0 0.0
2018-May-23 08:28N 57°11' W 002°01'0 0.0
2018-May-23 07:58N 57°11' W 002°01'0 0.0
2018-May-23 07:25N 57°11' W 002°01'0 0.0
2018-May-23 06:58N 57°11' W 002°01'0 0.0
2018-May-23 06:28N 57°11' W 002°01'0 0.0
2018-May-23 05:58N 57°11' W 002°01'0 0.0
2018-May-23 05:28N 57°11' W 002°01'0 0.0
2018-May-23 04:58N 57°11' W 002°01'0 0.0
2018-May-23 04:28N 57°11' W 002°01'0 0.0
2018-May-23 03:58N 57°11' W 002°01'0 0.0
2018-May-23 03:28N 57°11' W 002°01'0 0.0
2018-May-23 02:58N 57°11' W 002°01'0 0.0
2018-May-23 02:25N 57°11' W 002°01'0 0.0
2018-May-23 01:58N 57°11' W 002°01'0 0.0
2018-May-23 01:28N 57°11' W 002°01'0 0.0
2018-May-23 00:58N 57°11' W 002°01'0 0.0
2018-May-23 00:28N 57°11' W 002°01'0 0.0
2018-May-22 23:58N 57°11' W 002°01'0 0.0
2018-May-22 23:28N 57°11' W 002°01'0 0.0
2018-May-22 22:58N 57°11' W 002°01'0 0.0
2018-May-22 22:28N 57°11' W 002°01'0 0.0
2018-May-22 21:58N 57°11' W 002°01'0 0.0
2018-May-22 21:28N 57°11' W 002°01'0 0.0
2018-May-22 20:58N 57°11' W 002°01'0 0.0
2018-May-22 20:28N 57°11' W 002°01'0 0.0
2018-May-22 19:58N 57°11' W 002°01'0 0.0
2018-May-22 19:28N 57°11' W 002°01'0 0.0
2018-May-22 18:58N 57°11' W 002°01'0 0.0
2018-May-22 18:28N 57°11' W 002°01'0 0.0
2018-May-22 17:55N 57°11' W 002°01'0 0.0
2018-May-22 17:28N 57°11' W 002°01'0 0.0
2018-May-22 16:58N 57°11' W 002°01'0 0.0
2018-May-22 16:28N 57°11' W 002°01'0 0.0
2018-May-22 15:58N 57°11' W 002°01'0 0.0
2018-May-22 15:28N 57°11' W 002°01'0 0.1
2018-May-22 14:58N 57°11' W 002°01'0 0.0
2018-May-22 14:28N 57°11' W 002°01'0 0.0
2018-May-22 13:58N 57°11' W 002°01'0 0.0
2018-May-22 13:28N 57°11' W 002°01'0 0.0
2018-May-22 12:58N 57°11' W 002°01'0 0.0
2018-May-22 12:28N 57°11' W 002°01'0 0.0
2018-May-22 11:58N 57°11' W 002°01'0 0.0
2018-May-22 11:28N 57°11' W 002°01'0 0.0
2018-May-22 10:55N 57°11' W 002°01'0 0.0
2018-May-22 10:28N 57°11' W 002°01'0 0.0
2018-May-22 09:58N 57°11' W 002°01'0 0.0
2018-May-22 09:28N 57°11' W 002°01'0 0.0
2018-May-22 08:58N 57°11' W 002°01'0 0.0
2018-May-22 08:28N 57°11' W 002°01'0 0.1
2018-May-22 07:58N 57°11' W 002°01'0 0.0
2018-May-22 07:28N 57°11' W 002°01'0 0.0
2018-May-22 06:58N 57°11' W 002°01'0 0.0
2018-May-22 06:28N 57°11' W 002°01'0 0.1
2018-May-22 05:58N 57°11' W 002°01'0 0.1
2018-May-22 05:28N 57°11' W 002°01'0 0.0
2018-May-22 04:58N 57°11' W 002°01'0 0.0
2018-May-22 04:28N 57°11' W 002°01'0 0.0
2018-May-22 03:58N 57°11' W 002°01'0 0.0
2018-May-22 03:28N 57°11' W 002°01'0 0.0
2018-May-22 02:58N 57°11' W 002°01'0 0.0
2018-May-22 02:28N 57°11' W 002°01'0 0.0
2018-May-22 01:58N 57°11' W 002°01'0 0.0
2018-May-22 01:28N 57°11' W 002°01'0 0.1
2018-May-22 00:58N 57°11' W 002°01'0 0.1
2018-May-22 00:28N 57°11' W 002°01'0 0.0
2018-May-21 23:58N 57°11' W 002°01'0 0.0
2018-May-21 23:28N 57°11' W 002°01'0 0.0
2018-May-21 22:58N 57°11' W 002°01'0 0.0
2018-May-21 22:28N 57°11' W 002°01'0 0.1
2018-May-21 21:58N 57°11' W 002°01'0 0.1
2018-May-21 21:28N 57°11' W 002°01'0 0.0
2018-May-21 20:58N 57°11' W 002°01'0 0.1
2018-May-21 20:28N 57°11' W 002°01'0 0.1
2018-May-21 19:58N 57°11' W 002°01'0 0.0
2018-May-21 19:28N 57°11' W 002°01'0 0.0
2018-May-21 18:58N 57°11' W 002°01'0 0.0
2018-May-21 18:28N 57°11' W 002°01'0 0.0
2018-May-21 17:58N 57°11' W 002°01'0 0.1
2018-May-21 17:28N 57°11' W 002°01'0 0.1
2018-May-21 16:58N 57°11' W 002°01'0 0.1
2018-May-21 16:28N 57°11' W 002°01'0 0.0
2018-May-21 15:58N 57°11' W 002°01'0 0.0
2018-May-21 15:28N 57°11' W 002°01'0 0.0
2018-May-21 14:58N 57°11' W 002°01'0 0.1
2018-May-21 14:28N 57°11' W 002°01'0 0.0
2018-May-21 13:55N 57°11' W 002°01'0 0.0
2018-May-21 13:28N 57°11' W 002°01'0 0.0
2018-May-21 12:58N 57°11' W 002°01'0 0.0
2018-May-21 12:28N 57°11' W 002°01'0 0.0
2018-May-21 11:58N 57°11' W 002°01'0 0.0
2018-May-21 11:28N 57°11' W 002°01'0 0.0
2018-May-21 10:58N 57°11' W 002°01'0 0.0
2018-May-21 10:28N 57°11' W 002°01'0 0.0
2018-May-21 09:58N 57°11' W 002°01'0 0.0
2018-May-21 09:28N 57°11' W 002°01'0 0.0
2018-May-21 08:58N 57°11' W 002°01'0 0.0
2018-May-21 08:28N 57°11' W 002°01'0 0.0
2018-May-21 07:58N 57°11' W 002°01'0 0.0
2018-May-21 07:28N 57°11' W 002°01'0 0.0
2018-May-21 06:58N 57°11' W 002°01'0 0.0
2018-May-21 06:28N 57°11' W 002°01'0 0.0
2018-May-21 05:58N 57°11' W 002°01'0 0.0
2018-May-21 05:28N 57°11' W 002°01'0 0.0
2018-May-21 04:58N 57°11' W 002°01'0 0.0
2018-May-21 04:28N 57°11' W 002°01'0 0.0
2018-May-21 03:58N 57°11' W 002°01'0 0.0
2018-May-21 03:28N 57°11' W 002°01'0 0.0
2018-May-21 02:58N 57°11' W 002°01'0 0.0
2018-May-21 02:28N 57°11' W 002°01'0 0.0
2018-May-21 01:58N 57°11' W 002°01'0 0.1
2018-May-21 01:28N 57°11' W 002°01'0 0.0
2018-May-21 00:58N 57°11' W 002°01'0 0.0
2018-May-21 00:28N 57°11' W 002°01'0 0.0
2018-May-20 23:58N 57°11' W 002°01'0 0.0
2018-May-20 23:28N 57°11' W 002°01'0 0.0
2018-May-20 22:58N 57°11' W 002°01'0 0.0
2018-May-20 22:28N 57°11' W 002°01'0 0.0
2018-May-20 21:58N 57°11' W 002°01'0 0.0
2018-May-20 21:28N 57°11' W 002°01'0 0.0
2018-May-20 20:58N 57°11' W 002°01'0 0.0
2018-May-20 20:28N 57°11' W 002°01'0 0.0
2018-May-20 19:58N 57°11' W 002°01'0 0.0
2018-May-20 19:28N 57°11' W 002°01'0 0.0
2018-May-20 18:58N 57°11' W 002°01'0 0.0
2018-May-20 18:28N 57°11' W 002°01'0 0.0
2018-May-20 17:58N 57°11' W 002°01'0 0.0
2018-May-20 17:28N 57°11' W 002°01'0 0.0
2018-May-20 16:58N 57°11' W 002°01'0 0.0
2018-May-20 16:28N 57°11' W 002°01'0 0.0
2018-May-20 15:58N 57°11' W 002°01'0 0.0
2018-May-20 15:28N 57°11' W 002°01'0 0.0
2018-May-20 14:58N 57°11' W 002°01'0 0.0
2018-May-20 14:28N 57°11' W 002°01'0 0.0
2018-May-20 13:58N 57°11' W 002°01'0 0.0
2018-May-20 13:28N 57°11' W 002°01'0 0.1
2018-May-20 12:58N 57°11' W 002°01'0 0.1
2018-May-20 12:28N 57°11' W 002°01'0 0.0
2018-May-20 11:58N 57°11' W 002°01'0 0.1
2018-May-20 11:28N 57°11' W 002°01'0 0.1
2018-May-20 10:58N 57°11' W 002°01'0 0.0
2018-May-20 10:25N 57°11' W 002°01'0 0.1
2018-May-20 09:58N 57°11' W 002°01'0 0.0
2018-May-20 09:28N 57°11' W 002°01'0 0.0
2018-May-20 08:58N 57°11' W 002°01'0 0.0
2018-May-20 08:28N 57°11' W 002°01'0 0.0
2018-May-20 07:58N 57°11' W 002°01'0 0.0
2018-May-20 07:28N 57°11' W 002°01'0 0.0
2018-May-20 06:58N 57°11' W 002°01'0 0.1
2018-May-20 06:28N 57°11' W 002°01'0 0.0
2018-May-20 05:55N 57°11' W 002°01'0 0.1
2018-May-20 05:25N 57°11' W 002°01'0 0.0
2018-May-20 04:58N 57°11' W 002°01'0 0.0
2018-May-20 04:28N 57°11' W 002°01'0 0.0
2018-May-20 03:58N 57°11' W 002°01'0 0.0
2018-May-20 03:28N 57°11' W 002°01'0 0.0
2018-May-20 02:58N 57°11' W 002°01'0 0.0
2018-May-20 02:25N 57°11' W 002°01'0 0.0
2018-May-20 01:58N 57°11' W 002°01'0 0.0
2018-May-20 01:28N 57°11' W 002°01'0 0.0
2018-May-20 00:58N 57°11' W 002°01'0 0.0
2018-May-20 00:28N 57°11' W 002°01'0 0.0
2018-May-19 23:55N 57°11' W 002°01'0 0.1
2018-May-19 23:28N 57°11' W 002°01'0 0.0
2018-May-19 22:58N 57°11' W 002°01'0 0.0
2018-May-19 22:28N 57°11' W 002°01'0 0.0
2018-May-19 21:58N 57°11' W 002°01'0 0.0
2018-May-19 21:28N 57°11' W 002°01'0 0.0
2018-May-19 20:58N 57°11' W 002°01'0 0.0
2018-May-19 20:28N 57°11' W 002°01'0 0.0
2018-May-19 19:58N 57°11' W 002°01'0 0.0
2018-May-19 19:28N 57°11' W 002°01'0 0.0
2018-May-19 18:58N 57°11' W 002°01'0 0.0
2018-May-19 18:28N 57°11' W 002°01'0 0.0
2018-May-19 17:58N 57°11' W 002°01'0 0.1
2018-May-19 17:28N 57°11' W 002°01'0 0.1
2018-May-19 16:58N 57°11' W 002°01'0 0.0
2018-May-19 16:28N 57°11' W 002°01'0 0.0
2018-May-19 15:58N 57°11' W 002°01'0 0.0
2018-May-19 15:28N 57°11' W 002°01'0 0.0
2018-May-19 14:58N 57°11' W 002°01'0 0.0
2018-May-19 14:28N 57°11' W 002°01'0 0.0
2018-May-19 13:58N 57°11' W 002°01'0 0.0
2018-May-19 13:28N 57°11' W 002°01'0 0.0
2018-May-19 12:58N 57°11' W 002°01'0 0.0
2018-May-19 12:28N 57°11' W 002°01'0 0.0
2018-May-19 11:58N 57°11' W 002°01'0 0.0
2018-May-19 11:28N 57°11' W 002°01'0 0.0
2018-May-19 10:58N 57°11' W 002°01'0 0.0
2018-May-19 10:28N 57°11' W 002°01'0 0.0
2018-May-19 09:58N 57°11' W 002°01'0 0.0
2018-May-19 09:28N 57°11' W 002°01'0 0.0
2018-May-19 08:55N 57°11' W 002°01'0 0.2
2018-May-19 08:30N 57°11' W 002°01'1 1.2
2018-May-19 08:00N 57°11' W 002°00'4 8.4
2018-May-19 07:30N 57°13' W 001°53'5 9.3
2018-May-19 07:00N 57°15' W 001°46'5 9.5
2018-May-19 06:30N 57°17' W 001°38'5 8.6
2018-May-19 05:58N 57°22' W 001°37'4 9.8
2018-May-19 05:30N 57°26' W 001°38'610.3
2018-May-19 04:57N 57°32' W 001°40'5910.8
2018-May-18 23:28N 58°23' W 002°36'511.2
2018-May-18 23:00N 58°27' W 002°41'611.7
2018-May-18 22:30N 58°32' W 002°48'612.6
2018-May-18 22:00N 58°37' W 002°55'816.5
2018-May-18 21:30N 58°43' W 003°06'713.6
2018-May-18 21:00N 58°42' W 003°19'1210.5
2018-May-18 19:51N 58°42' W 003°43'99 8.8
2018-May-18 08:35N 57°31' W 005°54'211.6
2018-May-18 08:26N 57°29' W 005°54'611.4
2018-May-18 07:54N 57°23' W 005°53'410.7
2018-May-18 07:30N 57°19' W 005°51'5 8.9
2018-May-18 06:58N 57°17' W 005°43'0 0.1
2018-May-18 06:25N 57°17' W 005°43'0 0.0
2018-May-18 05:14N 57°17' W 005°43'0 0.0
2018-May-18 04:55N 57°17' W 005°43'0 0.0
2018-May-18 04:17N 57°17' W 005°43'0 0.0
2018-May-18 03:38N 57°17' W 005°43'0 0.0
2018-May-18 03:14N 57°17' W 005°43'0 0.0
2018-May-18 02:11N 57°17' W 005°43'0 0.0
2018-May-18 01:53N 57°17' W 005°43'0 0.0
2018-May-18 01:17N 57°17' W 005°43'  
Track history (hours):
 
Tides and Currents Weather Stations Pressure Air Temp Water Temp Dewpoint Dewpoint Depression Visibility Wind Speed Wind Dir Waves Ship Positions

Abis Bremen

Last reported at 2018-May-28 00:59 UTC. Time now 2018-May-28 01:09 UTC.
Position N 51°15' E 004°23'.

Length 90 m; draft 5.2 m.

Type: Ship. MMSI: 246778880.

Date/timePositionNaut miles runAvg speedWind from/ knotsBaromVisibWave heightAir tempDewpointWater temp
2018-May-28 00:59N 51°15' E 004°23'0 0.0
2018-May-28 00:29N 51°15' E 004°23'0 0.0
2018-May-27 23:59N 51°15' E 004°23'0 0.0
2018-May-27 23:29N 51°15' E 004°23'0 0.0
2018-May-27 22:59N 51°15' E 004°23'0 0.0
2018-May-27 22:29N 51°15' E 004°23'0 0.0
2018-May-27 21:59N 51°15' E 004°23'0 0.0
2018-May-27 21:29N 51°15' E 004°23'0 0.0
2018-May-27 20:59N 51°15' E 004°23'0 0.0
2018-May-27 20:29N 51°15' E 004°23'0 0.0
2018-May-27 19:59N 51°15' E 004°23'0 0.0
2018-May-27 19:29N 51°15' E 004°23'0 0.0
2018-May-27 18:59N 51°15' E 004°23'0 0.0
2018-May-27 18:29N 51°15' E 004°23'0 0.0
2018-May-27 17:59N 51°15' E 004°23'0 0.0
2018-May-27 17:29N 51°15' E 004°23'0 0.0
2018-May-27 16:56N 51°15' E 004°23'0 0.0
2018-May-27 16:26N 51°15' E 004°23'0 0.0
2018-May-27 15:59N 51°15' E 004°23'0 0.0
2018-May-27 15:29N 51°15' E 004°23'0 0.0
2018-May-27 14:59N 51°15' E 004°23'0 0.0
2018-May-27 14:29N 51°15' E 004°23'0 0.0
2018-May-27 13:59N 51°15' E 004°23'0 0.0
2018-May-27 13:29N 51°15' E 004°23'0 0.0
2018-May-27 12:59N 51°15' E 004°23'0 0.0
2018-May-27 12:29N 51°15' E 004°23'0 0.0
2018-May-27 11:59N 51°15' E 004°23'0 0.0
2018-May-27 11:29N 51°15' E 004°23'0 0.0
2018-May-27 10:59N 51°15' E 004°23'0 0.0
2018-May-27 10:29N 51°15' E 004°23'0 0.0
2018-May-27 09:59N 51°15' E 004°23'0 0.0
2018-May-27 09:29N 51°15' E 004°23'0 0.0
2018-May-27 08:59N 51°15' E 004°23'0 0.0
2018-May-27 08:29N 51°15' E 004°23'0 0.0
2018-May-27 07:59N 51°15' E 004°23'0 0.0
2018-May-27 07:29N 51°15' E 004°23'0 0.0
2018-May-27 06:59N 51°15' E 004°23'0 0.0
2018-May-27 06:29N 51°15' E 004°23'0 0.0
2018-May-27 06:00N 51°15' E 004°23'1 1.9
2018-May-27 05:31N 51°15' E 004°22'2 3.4
2018-May-27 05:00N 51°17' E 004°20'0 0.5
2018-May-27 04:30N 51°17' E 004°20'3 5.9
2018-May-27 04:00N 51°19' E 004°16'4 7.9
2018-May-27 03:30N 51°22' E 004°13'3 5.6
2018-May-27 03:00N 51°22' E 004°09'4 7.7
2018-May-27 02:30N 51°23' E 004°02'4 7.8
2018-May-27 02:00N 51°26' E 003°59'4 8.8
2018-May-27 01:30N 51°22' E 003°56'5 9.4
2018-May-27 01:00N 51°21' E 003°49'5 9.9
2018-May-27 00:30N 51°24' E 003°42'510.0
2018-May-27 00:00N 51°26' E 003°35'5 9.8
2018-May-26 23:29N 51°29' E 003°29'510.7
2018-May-26 23:00N 51°34' E 003°25'611.8
2018-May-26 22:30N 51°39' E 003°20'611.0
2018-May-26 22:00N 51°43' E 003°14'5 9.4
2018-May-26 21:30N 51°47' E 003°10'510.6
2018-May-26 21:00N 51°51' E 003°03'2410.1
2018-May-26 18:37N 52°09' E 002°39'1112.0
2018-May-26 17:41N 52°21' E 002°37'212.0
2018-May-26 17:30N 52°23' E 002°37'911.7
2018-May-26 16:46N 52°31' E 002°37'311.3
2018-May-26 16:30N 52°34' E 002°37'511.0
2018-May-26 16:00N 52°40' E 002°37'510.6
2018-May-26 15:30N 52°45' E 002°37'510.2
2018-May-26 15:00N 52°50' E 002°37'5 9.7
2018-May-26 14:30N 52°55' E 002°37'5 9.3
2018-May-26 14:00N 52°60' E 002°37'5 9.1
2018-May-26 13:29N 53°04' E 002°37'4 9.1
2018-May-26 13:00N 53°09' E 002°38'5 9.1
2018-May-26 12:30N 53°13' E 002°40'4 8.8
2018-May-26 12:00N 53°17' E 002°39'5 9.0
2018-May-26 11:28N 53°22' E 002°37'4 9.0
2018-May-26 10:59N 53°26' E 002°34'5 9.2
2018-May-26 10:29N 53°31' E 002°32'4 9.3
2018-May-26 10:00N 53°35' E 002°29'5 9.4
2018-May-26 09:30N 53°39' E 002°27'6 9.6
2018-May-26 08:50N 53°45' E 002°23'3 9.8
2018-May-26 08:30N 53°48' E 002°21'710.2
2018-May-26 07:52N 53°54' E 002°17'410.5
2018-May-26 07:30N 53°58' E 002°15'510.7
2018-May-26 07:00N 54°02' E 002°10'1610.6
2018-May-26 05:30N 54°15' E 001°53'610.3
2018-May-26 04:58N 54°19' E 001°47'510.1
2018-May-26 04:30N 54°23' E 001°42'5 9.9
2018-May-26 03:57N 54°27' E 001°37'510.1
2018-May-26 03:28N 54°31' E 001°32'510.4
2018-May-26 03:00N 54°35' E 001°28'510.3
2018-May-26 02:30N 54°39' E 001°22'510.2
2018-May-26 02:00N 54°43' E 001°16'510.0
2018-May-26 01:30N 54°47' E 001°10'510.1
2018-May-26 01:00N 54°51' E 001°05'79 9.8
2018-May-25 16:55N 55°55' W 000°17'7 9.5
2018-May-25 16:11N 56°00' W 000°24'2 9.6
2018-May-25 16:00N 56°02' W 000°26'3810.0
2018-May-25 12:16N 56°32' W 001°07'310.5
2018-May-25 12:00N 56°34' W 001°10'2110.8
2018-May-25 10:05N 56°51' W 001°32'311.0
2018-May-25 09:51N 56°53' W 001°35'410.9
2018-May-25 09:30N 56°56' W 001°39'611.0
2018-May-25 09:00N 56°60' W 001°45'511.0
2018-May-25 08:30N 57°04' W 001°51'510.8
2018-May-25 08:00N 57°09' W 001°57'3 5.9
2018-May-25 07:28N 57°11' W 002°01'0 0.0
2018-May-25 06:58N 57°11' W 002°01'0 0.0
2018-May-25 06:28N 57°11' W 002°01'0 0.0
2018-May-25 05:58N 57°11' W 002°01'0 0.0
2018-May-25 05:28N 57°11' W 002°01'0 0.0
2018-May-25 04:58N 57°11' W 002°01'0 0.0
2018-May-25 04:28N 57°11' W 002°01'0 0.0
2018-May-25 03:58N 57°11' W 002°01'0 0.0
2018-May-25 03:28N 57°11' W 002°01'0 0.0
2018-May-25 02:58N 57°11' W 002°01'0 0.0
2018-May-25 02:28N 57°11' W 002°01'0 0.0
2018-May-25 01:58N 57°11' W 002°01'0 0.0
2018-May-25 01:25N 57°11' W 002°01'0 0.0
2018-May-25 00:58N 57°11' W 002°01'0 0.0
2018-May-25 00:28N 57°11' W 002°01'0 0.0
2018-May-24 23:58N 57°11' W 002°01'0 0.0
2018-May-24 23:28N 57°11' W 002°01'0 0.0
2018-May-24 22:58N 57°11' W 002°01'0 0.0
2018-May-24 22:28N 57°11' W 002°01'0 0.0
2018-May-24 21:58N 57°11' W 002°01'0 0.0
2018-May-24 21:28N 57°11' W 002°01'0 0.0
2018-May-24 20:58N 57°11' W 002°01'0 0.0
2018-May-24 20:28N 57°11' W 002°01'0 0.0
2018-May-24 19:58N 57°11' W 002°01'0 0.0
2018-May-24 19:28N 57°11' W 002°01'0 0.0
2018-May-24 18:58N 57°11' W 002°01'0 0.0
2018-May-24 18:28N 57°11' W 002°01'0 0.0
2018-May-24 17:58N 57°11' W 002°01'0 0.0
2018-May-24 17:28N 57°11' W 002°01'0 0.0
2018-May-24 16:58N 57°11' W 002°01'0 0.0
2018-May-24 16:25N 57°11' W 002°01'0 0.0
2018-May-24 15:58N 57°11' W 002°01'0 0.0
2018-May-24 15:28N 57°11' W 002°01'0 0.0
2018-May-24 14:58N 57°11' W 002°01'0 0.0
2018-May-24 14:25N 57°11' W 002°01'0 0.0
2018-May-24 13:58N 57°11' W 002°01'0 0.0
2018-May-24 13:19N 57°11' W 002°01'0 0.0
2018-May-24 08:58N 57°11' W 002°01'0 0.0
2018-May-24 08:28N 57°11' W 002°01'0 0.0
2018-May-24 07:58N 57°11' W 002°01'0 0.0
2018-May-24 07:28N 57°11' W 002°01'0 0.0
2018-May-24 06:58N 57°11' W 002°01'0 0.1
2018-May-24 06:25N 57°11' W 002°01'0 0.1
2018-May-24 05:58N 57°11' W 002°01'0 0.0
2018-May-24 05:28N 57°11' W 002°01'0 0.0
2018-May-24 04:58N 57°11' W 002°01'0 0.0
2018-May-24 04:28N 57°11' W 002°01'0 0.0
2018-May-24 03:58N 57°11' W 002°01'0 0.0
2018-May-24 03:28N 57°11' W 002°01'0 0.0
2018-May-24 02:58N 57°11' W 002°01'0 0.0
2018-May-24 02:28N 57°11' W 002°01'0 0.0
2018-May-24 01:55N 57°11' W 002°01'0 0.0
2018-May-24 01:28N 57°11' W 002°01'0 0.0
2018-May-24 00:58N 57°11' W 002°01'0 0.0
2018-May-24 00:28N 57°11' W 002°01'0 0.0
2018-May-23 23:58N 57°11' W 002°01'0 0.0
2018-May-23 23:28N 57°11' W 002°01'0 0.0
2018-May-23 22:58N 57°11' W 002°01'0 0.0
2018-May-23 22:28N 57°11' W 002°01'0 0.0
2018-May-23 21:58N 57°11' W 002°01'0 0.0
2018-May-23 21:28N 57°11' W 002°01'0 0.0
2018-May-23 20:58N 57°11' W 002°01'0 0.0
2018-May-23 20:28N 57°11' W 002°01'0 0.0
2018-May-23 19:58N 57°11' W 002°01'0 0.0
2018-May-23 19:28N 57°11' W 002°01'0 0.0
2018-May-23 18:58N 57°11' W 002°01'0 0.0
2018-May-23 18:25N 57°11' W 002°01'0 0.0
2018-May-23 17:58N 57°11' W 002°01'0 0.0
2018-May-23 17:28N 57°11' W 002°01'0 0.0
2018-May-23 16:58N 57°11' W 002°01'0 0.0
2018-May-23 16:25N 57°11' W 002°01'0 0.0
2018-May-23 15:58N 57°11' W 002°01'0 0.0
2018-May-23 15:28N 57°11' W 002°01'0 0.0
2018-May-23 14:55N 57°11' W 002°01'0 0.0
2018-May-23 14:28N 57°11' W 002°01'0 0.0
2018-May-23 13:58N 57°11' W 002°01'0 0.0
2018-May-23 13:28N 57°11' W 002°01'0 0.0
2018-May-23 12:58N 57°11' W 002°01'0 0.0
2018-May-23 12:28N 57°11' W 002°01'0 0.0
2018-May-23 11:58N 57°11' W 002°01'0 0.0
2018-May-23 11:28N 57°11' W 002°01'0 0.0
2018-May-23 10:58N 57°11' W 002°01'0 0.0
2018-May-23 10:28N 57°11' W 002°01'0 0.0
2018-May-23 09:58N 57°11' W 002°01'0 0.0
2018-May-23 09:28N 57°11' W 002°01'0 0.0
2018-May-23 08:58N 57°11' W 002°01'0 0.0
2018-May-23 08:28N 57°11' W 002°01'0 0.0
2018-May-23 07:58N 57°11' W 002°01'0 0.0
2018-May-23 07:25N 57°11' W 002°01'0 0.0
2018-May-23 06:58N 57°11' W 002°01'0 0.0
2018-May-23 06:28N 57°11' W 002°01'0 0.0
2018-May-23 05:58N 57°11' W 002°01'0 0.0
2018-May-23 05:28N 57°11' W 002°01'0 0.0
2018-May-23 04:58N 57°11' W 002°01'0 0.0
2018-May-23 04:28N 57°11' W 002°01'0 0.0
2018-May-23 03:58N 57°11' W 002°01'0 0.0
2018-May-23 03:28N 57°11' W 002°01'0 0.0
2018-May-23 02:58N 57°11' W 002°01'0 0.0
2018-May-23 02:25N 57°11' W 002°01'0 0.0
2018-May-23 01:58N 57°11' W 002°01'0 0.0
2018-May-23 01:28N 57°11' W 002°01'0 0.0
2018-May-23 00:58N 57°11' W 002°01'0 0.0
2018-May-23 00:28N 57°11' W 002°01'0 0.0
2018-May-22 23:58N 57°11' W 002°01'0 0.0
2018-May-22 23:28N 57°11' W 002°01'0 0.0
2018-May-22 22:58N 57°11' W 002°01'0 0.0
2018-May-22 22:28N 57°11' W 002°01'0 0.0
2018-May-22 21:58N 57°11' W 002°01'0 0.0
2018-May-22 21:28N 57°11' W 002°01'0 0.0
2018-May-22 20:58N 57°11' W 002°01'0 0.0
2018-May-22 20:28N 57°11' W 002°01'0 0.0
2018-May-22 19:58N 57°11' W 002°01'0 0.0
2018-May-22 19:28N 57°11' W 002°01'0 0.0
2018-May-22 18:58N 57°11' W 002°01'0 0.0
2018-May-22 18:28N 57°11' W 002°01'0 0.0
2018-May-22 17:55N 57°11' W 002°01'0 0.0
2018-May-22 17:28N 57°11' W 002°01'0 0.0
2018-May-22 16:58N 57°11' W 002°01'0 0.0
2018-May-22 16:28N 57°11' W 002°01'0 0.0
2018-May-22 15:58N 57°11' W 002°01'0 0.0
2018-May-22 15:28N 57°11' W 002°01'0 0.1
2018-May-22 14:58N 57°11' W 002°01'0 0.0
2018-May-22 14:28N 57°11' W 002°01'0 0.0
2018-May-22 13:58N 57°11' W 002°01'0 0.0
2018-May-22 13:28N 57°11' W 002°01'0 0.0
2018-May-22 12:58N 57°11' W 002°01'0 0.0
2018-May-22 12:28N 57°11' W 002°01'0 0.0
2018-May-22 11:58N 57°11' W 002°01'0 0.0
2018-May-22 11:28N 57°11' W 002°01'0 0.0
2018-May-22 10:55N 57°11' W 002°01'0 0.0
2018-May-22 10:28N 57°11' W 002°01'0 0.0
2018-May-22 09:58N 57°11' W 002°01'0 0.0
2018-May-22 09:28N 57°11' W 002°01'0 0.0
2018-May-22 08:58N 57°11' W 002°01'0 0.0
2018-May-22 08:28N 57°11' W 002°01'0 0.1
2018-May-22 07:58N 57°11' W 002°01'0 0.0
2018-May-22 07:28N 57°11' W 002°01'0 0.0
2018-May-22 06:58N 57°11' W 002°01'0 0.0
2018-May-22 06:28N 57°11' W 002°01'0 0.1
2018-May-22 05:58N 57°11' W 002°01'0 0.1
2018-May-22 05:28N 57°11' W 002°01'0 0.0
2018-May-22 04:58N 57°11' W 002°01'0 0.0
2018-May-22 04:28N 57°11' W 002°01'0 0.0
2018-May-22 03:58N 57°11' W 002°01'0 0.0
2018-May-22 03:28N 57°11' W 002°01'0 0.0
2018-May-22 02:58N 57°11' W 002°01'0 0.0
2018-May-22 02:28N 57°11' W 002°01'0 0.0
2018-May-22 01:58N 57°11' W 002°01'0 0.0
2018-May-22 01:28N 57°11' W 002°01'0 0.1
2018-May-22 00:58N 57°11' W 002°01'0 0.1
2018-May-22 00:28N 57°11' W 002°01'0 0.0
2018-May-21 23:58N 57°11' W 002°01'0 0.0
2018-May-21 23:28N 57°11' W 002°01'0 0.0
2018-May-21 22:58N 57°11' W 002°01'0 0.0
2018-May-21 22:28N 57°11' W 002°01'0 0.1
2018-May-21 21:58N 57°11' W 002°01'0 0.1
2018-May-21 21:28N 57°11' W 002°01'0 0.0
2018-May-21 20:58N 57°11' W 002°01'0 0.1
2018-May-21 20:28N 57°11' W 002°01'0 0.1
2018-May-21 19:58N 57°11' W 002°01'0 0.0
2018-May-21 19:28N 57°11' W 002°01'0 0.0
2018-May-21 18:58N 57°11' W 002°01'0 0.0
2018-May-21 18:28N 57°11' W 002°01'0 0.0
2018-May-21 17:58N 57°11' W 002°01'0 0.1
2018-May-21 17:28N 57°11' W 002°01'0 0.1
2018-May-21 16:58N 57°11' W 002°01'0 0.1
2018-May-21 16:28N 57°11' W 002°01'0 0.0
2018-May-21 15:58N 57°11' W 002°01'0 0.0
2018-May-21 15:28N 57°11' W 002°01'0 0.0
2018-May-21 14:58N 57°11' W 002°01'0 0.1
2018-May-21 14:28N 57°11' W 002°01'0 0.0
2018-May-21 13:55N 57°11' W 002°01'0 0.0
2018-May-21 13:28N 57°11' W 002°01'0 0.0
2018-May-21 12:58N 57°11' W 002°01'0 0.0
2018-May-21 12:28N 57°11' W 002°01'0 0.0
2018-May-21 11:58N 57°11' W 002°01'0 0.0
2018-May-21 11:28N 57°11' W 002°01'0 0.0
2018-May-21 10:58N 57°11' W 002°01'0 0.0
2018-May-21 10:28N 57°11' W 002°01'0 0.0
2018-May-21 09:58N 57°11' W 002°01'0 0.0
2018-May-21 09:28N 57°11' W 002°01'0 0.0
2018-May-21 08:58N 57°11' W 002°01'0 0.0
2018-May-21 08:28N 57°11' W 002°01'0 0.0
2018-May-21 07:58N 57°11' W 002°01'0 0.0
2018-May-21 07:28N 57°11' W 002°01'0 0.0
2018-May-21 06:58N 57°11' W 002°01'0 0.0
2018-May-21 06:28N 57°11' W 002°01'0 0.0
2018-May-21 05:58N 57°11' W 002°01'0 0.0
2018-May-21 05:28N 57°11' W 002°01'0 0.0
2018-May-21 04:58N 57°11' W 002°01'0 0.0
2018-May-21 04:28N 57°11' W 002°01'0 0.0
2018-May-21 03:58N 57°11' W 002°01'0 0.0
2018-May-21 03:28N 57°11' W 002°01'0 0.0
2018-May-21 02:58N 57°11' W 002°01'0 0.0
2018-May-21 02:28N 57°11' W 002°01'0 0.0
2018-May-21 01:58N 57°11' W 002°01'0 0.1
2018-May-21 01:28N 57°11' W 002°01'0 0.0
2018-May-21 00:58N 57°11' W 002°01'0 0.0
2018-May-21 00:28N 57°11' W 002°01'0 0.0
2018-May-20 23:58N 57°11' W 002°01'0 0.0
2018-May-20 23:28N 57°11' W 002°01'0 0.0
2018-May-20 22:58N 57°11' W 002°01'0 0.0
2018-May-20 22:28N 57°11' W 002°01'0 0.0
2018-May-20 21:58N 57°11' W 002°01'0 0.0
2018-May-20 21:28N 57°11' W 002°01'0 0.0
2018-May-20 20:58N 57°11' W 002°01'0 0.0
2018-May-20 20:28N 57°11' W 002°01'0 0.0
2018-May-20 19:58N 57°11' W 002°01'0 0.0
2018-May-20 19:28N 57°11' W 002°01'0 0.0
2018-May-20 18:58N 57°11' W 002°01'0 0.0
2018-May-20 18:28N 57°11' W 002°01'0 0.0
2018-May-20 17:58N 57°11' W 002°01'0 0.0
2018-May-20 17:28N 57°11' W 002°01'0 0.0
2018-May-20 16:58N 57°11' W 002°01'0 0.0
2018-May-20 16:28N 57°11' W 002°01'0 0.0
2018-May-20 15:58N 57°11' W 002°01'0 0.0
2018-May-20 15:28N 57°11' W 002°01'0 0.0
2018-May-20 14:58N 57°11' W 002°01'0 0.0
2018-May-20 14:28N 57°11' W 002°01'0 0.0
2018-May-20 13:58N 57°11' W 002°01'0 0.0
2018-May-20 13:28N 57°11' W 002°01'0 0.1
2018-May-20 12:58N 57°11' W 002°01'0 0.1
2018-May-20 12:28N 57°11' W 002°01'0 0.0
2018-May-20 11:58N 57°11' W 002°01'0 0.1
2018-May-20 11:28N 57°11' W 002°01'0 0.1
2018-May-20 10:58N 57°11' W 002°01'0 0.0
2018-May-20 10:25N 57°11' W 002°01'0 0.1
2018-May-20 09:58N 57°11' W 002°01'0 0.0
2018-May-20 09:28N 57°11' W 002°01'0 0.0
2018-May-20 08:58N 57°11' W 002°01'0 0.0
2018-May-20 08:28N 57°11' W 002°01'0 0.0
2018-May-20 07:58N 57°11' W 002°01'0 0.0
2018-May-20 07:28N 57°11' W 002°01'0 0.0
2018-May-20 06:58N 57°11' W 002°01'0 0.1
2018-May-20 06:28N 57°11' W 002°01'0 0.0
2018-May-20 05:55N 57°11' W 002°01'0 0.1
2018-May-20 05:25N 57°11' W 002°01'0 0.0
2018-May-20 04:58N 57°11' W 002°01'0 0.0
2018-May-20 04:28N 57°11' W 002°01'0 0.0
2018-May-20 03:58N 57°11' W 002°01'0 0.0
2018-May-20 03:28N 57°11' W 002°01'0 0.0
2018-May-20 02:58N 57°11' W 002°01'0 0.0
2018-May-20 02:25N 57°11' W 002°01'0 0.0
2018-May-20 01:58N 57°11' W 002°01'0 0.0
2018-May-20 01:28N 57°11' W 002°01'0 0.0
2018-May-20 00:58N 57°11' W 002°01'0 0.0
2018-May-20 00:28N 57°11' W 002°01'0 0.0
2018-May-19 23:55N 57°11' W 002°01'0 0.1
2018-May-19 23:28N 57°11' W 002°01'0 0.0
2018-May-19 22:58N 57°11' W 002°01'0 0.0
2018-May-19 22:28N 57°11' W 002°01'0 0.0
2018-May-19 21:58N 57°11' W 002°01'0 0.0
2018-May-19 21:28N 57°11' W 002°01'0 0.0
2018-May-19 20:58N 57°11' W 002°01'0 0.0
2018-May-19 20:28N 57°11' W 002°01'0 0.0
2018-May-19 19:58N 57°11' W 002°01'0 0.0
2018-May-19 19:28N 57°11' W 002°01'0 0.0
2018-May-19 18:58N 57°11' W 002°01'0 0.0
2018-May-19 18:28N 57°11' W 002°01'0 0.0
2018-May-19 17:58N 57°11' W 002°01'0 0.1
2018-May-19 17:28N 57°11' W 002°01'0 0.1
2018-May-19 16:58N 57°11' W 002°01'0 0.0
2018-May-19 16:28N 57°11' W 002°01'0 0.0
2018-May-19 15:58N 57°11' W 002°01'0 0.0
2018-May-19 15:28N 57°11' W 002°01'0 0.0
2018-May-19 14:58N 57°11' W 002°01'0 0.0
2018-May-19 14:28N 57°11' W 002°01'0 0.0
2018-May-19 13:58N 57°11' W 002°01'0 0.0
2018-May-19 13:28N 57°11' W 002°01'0 0.0
2018-May-19 12:58N 57°11' W 002°01'0 0.0
2018-May-19 12:28N 57°11' W 002°01'0 0.0
2018-May-19 11:58N 57°11' W 002°01'0 0.0
2018-May-19 11:28N 57°11' W 002°01'0 0.0
2018-May-19 10:58N 57°11' W 002°01'0 0.0
2018-May-19 10:28N 57°11' W 002°01'0 0.0
2018-May-19 09:58N 57°11' W 002°01'0 0.0
2018-May-19 09:28N 57°11' W 002°01'0 0.0
2018-May-19 08:55N 57°11' W 002°01'0 0.2
2018-May-19 08:30N 57°11' W 002°01'1 1.2
2018-May-19 08:00N 57°11' W 002°00'4 8.4
2018-May-19 07:30N 57°13' W 001°53'5 9.3
2018-May-19 07:00N 57°15' W 001°46'5 9.5
2018-May-19 06:30N 57°17' W 001°38'5 8.6
2018-May-19 05:58N 57°22' W 001°37'4 9.8
2018-May-19 05:30N 57°26' W 001°38'610.3
2018-May-19 04:57N 57°32' W 001°40'5910.8
2018-May-18 23:28N 58°23' W 002°36'511.2
2018-May-18 23:00N 58°27' W 002°41'611.7
2018-May-18 22:30N 58°32' W 002°48'612.6
2018-May-18 22:00N 58°37' W 002°55'816.5
2018-May-18 21:30N 58°43' W 003°06'713.6
2018-May-18 21:00N 58°42' W 003°19'1210.5
2018-May-18 19:51N 58°42' W 003°43'99 8.8
2018-May-18 08:35N 57°31' W 005°54'211.6
2018-May-18 08:26N 57°29' W 005°54'611.4
2018-May-18 07:54N 57°23' W 005°53'410.7
2018-May-18 07:30N 57°19' W 005°51'5 8.9
2018-May-18 06:58N 57°17' W 005°43'0 0.1
2018-May-18 06:25N 57°17' W 005°43'0 0.0
2018-May-18 05:14N 57°17' W 005°43'0 0.0
2018-May-18 04:55N 57°17' W 005°43'0 0.0
2018-May-18 04:17N 57°17' W 005°43'0 0.0
2018-May-18 03:38N 57°17' W 005°43'0 0.0
2018-May-18 03:14N 57°17' W 005°43'0 0.0
2018-May-18 02:11N 57°17' W 005°43'0 0.0
2018-May-18 01:53N 57°17' W 005°43'0 0.0
2018-May-18 01:17N 57°17' W 005°43'  

Dump ship's entire track history